createdAt,value
2023-02-19T00:01:56.392Z,10.13
2023-02-19T00:04:26.781Z,10.15
2023-02-19T00:06:59.786Z,10.17
2023-02-19T00:09:30.139Z,10.18
2023-02-19T00:12:00.532Z,10.17
2023-02-19T00:14:30.913Z,10.14
2023-02-19T00:17:01.406Z,10.14
2023-02-19T00:19:32.066Z,10.15
2023-02-19T00:22:05.146Z,10.11
2023-02-19T00:24:35.495Z,10.11
2023-02-19T00:27:05.991Z,10.15
2023-02-19T00:29:36.599Z,10.17
2023-02-19T00:32:07.730Z,10.06
2023-02-19T00:34:38.155Z,10.01
2023-02-19T00:37:11.283Z,10.06
2023-02-19T00:39:41.590Z,10.03
2023-02-19T00:42:12.359Z,10.08
2023-02-19T00:44:42.765Z,10.07
2023-02-19T00:47:13.119Z,10.05
2023-02-19T00:49:43.531Z,10.10
2023-02-19T00:52:16.531Z,10.13
2023-02-19T00:54:46.891Z,10.13
2023-02-19T00:57:17.299Z,10.11
2023-02-19T00:59:47.629Z,10.07
2023-02-19T01:02:18.303Z,10.05
2023-02-19T01:04:48.733Z,9.98
2023-02-19T01:07:21.822Z,9.96
2023-02-19T01:09:52.166Z,10.01
2023-02-19T01:12:24.342Z,9.97
2023-02-19T01:14:55.065Z,9.92
2023-02-19T01:17:25.454Z,9.90
2023-02-19T01:19:56.006Z,9.79
2023-02-19T01:22:29.079Z,9.62
2023-02-19T01:24:59.326Z,9.61
2023-02-19T01:27:29.881Z,9.61
2023-02-19T01:30:00.336Z,9.60
2023-02-19T01:32:31.106Z,9.57
2023-02-19T01:35:01.490Z,9.54
2023-02-19T01:37:34.679Z,9.53
2023-02-19T01:40:05.097Z,9.49
2023-02-19T01:42:35.664Z,9.50
2023-02-19T01:45:26.069Z,9.44
2023-02-19T01:48:04.842Z,9.42
2023-02-19T01:50:41.191Z,9.41
2023-02-19T01:53:16.839Z,9.50
2023-02-19T01:55:50.461Z,9.54
2023-02-19T01:58:21.372Z,9.59
2023-02-19T02:00:51.968Z,9.47
2023-02-19T02:03:23.898Z,9.53
2023-02-19T02:06:00.029Z,9.52
2023-02-19T02:08:47.038Z,9.45
2023-02-19T02:11:17.612Z,9.55
2023-02-19T02:13:48.788Z,9.53
2023-02-19T02:16:27.049Z,9.42
2023-02-19T02:19:05.528Z,9.33
2023-02-19T02:22:08.989Z,9.34
2023-02-19T02:25:20.279Z,9.34
2023-02-19T02:28:08.833Z,9.34
2023-02-19T02:30:46.977Z,9.40
2023-02-19T02:33:27.913Z,9.32
2023-02-19T02:36:04.124Z,9.38
2023-02-19T02:38:39.460Z,9.35
2023-02-19T02:41:10.543Z,9.38
2023-02-19T02:43:41.033Z,9.38
2023-02-19T02:46:20.238Z,9.39
2023-02-19T02:48:56.702Z,9.46
2023-02-19T02:51:30.601Z,9.55
2023-02-19T02:54:23.495Z,9.54
2023-02-19T02:56:55.986Z,9.54
2023-02-19T02:59:31.024Z,9.50
2023-02-19T03:02:11.749Z,9.51
2023-02-19T03:05:05.840Z,9.49
2023-02-19T03:07:42.759Z,9.44
2023-02-19T03:10:18.616Z,9.43
2023-02-19T03:13:01.460Z,9.44
2023-02-19T03:15:50.659Z,9.49
2023-02-19T03:18:38.950Z,9.57
2023-02-19T03:21:11.958Z,9.45
2023-02-19T03:23:57.720Z,9.46
2023-02-19T03:26:29.512Z,9.44
2023-02-19T03:29:13.705Z,9.45
2023-02-19T03:31:47.901Z,9.48
2023-02-19T03:34:28.103Z,9.51
2023-02-19T03:37:06.510Z,9.50
2023-02-19T03:39:44.468Z,9.54
2023-02-19T03:42:35.544Z,9.53
2023-02-19T03:45:23.310Z,9.54
2023-02-19T03:48:01.016Z,9.62
2023-02-19T03:50:46.282Z,9.60
2023-02-19T03:53:27.705Z,9.64
2023-02-19T03:56:10.191Z,9.59
2023-02-19T03:58:53.729Z,9.61
2023-02-19T04:01:30.006Z,9.61
2023-02-19T04:04:05.767Z,9.71
2023-02-19T04:06:41.419Z,9.73
2023-02-19T04:09:14.765Z,9.72
2023-02-19T04:11:49.632Z,9.73
2023-02-19T04:14:25.873Z,9.78
2023-02-19T04:17:03.135Z,9.85
2023-02-19T04:19:39.393Z,9.88
2023-02-19T04:22:13.586Z,9.83
2023-02-19T04:24:51.468Z,9.84
2023-02-19T04:27:22.485Z,9.82
2023-02-19T04:29:52.532Z,9.85
2023-02-19T04:32:23.148Z,9.79
2023-02-19T04:34:54.427Z,9.70
2023-02-19T04:37:27.485Z,9.71
2023-02-19T04:39:57.818Z,9.70
2023-02-19T04:42:28.206Z,9.68
2023-02-19T04:44:58.540Z,9.67
2023-02-19T04:47:28.887Z,9.65
2023-02-19T04:49:59.261Z,9.67
2023-02-19T04:52:33.426Z,9.66
2023-02-19T04:55:03.735Z,9.68
2023-02-19T04:57:34.064Z,9.63
2023-02-19T05:00:04.622Z,9.66
2023-02-19T05:02:35.079Z,9.71
2023-02-19T05:05:05.566Z,9.76
2023-02-19T05:07:40.701Z,9.77
2023-02-19T05:10:11.631Z,9.72
2023-02-19T05:12:42.017Z,9.69
2023-02-19T05:15:12.492Z,9.74
2023-02-19T05:17:42.889Z,9.73
2023-02-19T05:20:14.229Z,9.75
2023-02-19T05:22:47.186Z,9.77
2023-02-19T05:25:17.929Z,9.80
2023-02-19T05:27:48.306Z,9.93
2023-02-19T05:30:19.058Z,10.09
2023-02-19T05:32:49.518Z,10.08
2023-02-19T05:35:20.175Z,9.96
2023-02-19T05:37:53.290Z,9.86
2023-02-19T05:40:23.572Z,9.75
2023-02-19T05:42:54.039Z,9.76
2023-02-19T05:45:24.336Z,9.69
2023-02-19T05:47:54.658Z,9.68
2023-02-19T05:50:25.165Z,9.71
2023-02-19T05:52:58.224Z,9.65
2023-02-19T05:55:28.677Z,9.84
2023-02-19T05:57:59.366Z,9.95
2023-02-19T06:00:30.146Z,9.87
2023-02-19T06:03:00.626Z,9.87
2023-02-19T06:05:31.370Z,9.80
2023-02-19T06:08:04.460Z,9.83
2023-02-19T06:10:34.844Z,10.01
2023-02-19T06:13:05.274Z,10.05
2023-02-19T06:15:35.613Z,10.11
2023-02-19T06:18:06.084Z,10.17
2023-02-19T06:20:36.677Z,10.23
2023-02-19T06:23:09.691Z,10.26
2023-02-19T06:25:39.943Z,10.25
2023-02-19T06:28:10.661Z,10.23
2023-02-19T06:30:41.040Z,10.05
2023-02-19T06:33:11.506Z,10.06
2023-02-19T06:35:41.858Z,10.06
2023-02-19T06:38:14.813Z,10.10
2023-02-19T06:40:46.533Z,10.03
2023-02-19T06:43:16.861Z,9.91
2023-02-19T06:45:47.191Z,9.93
2023-02-19T06:48:17.618Z,9.93
2023-02-19T06:50:48.028Z,9.90
2023-02-19T06:53:21.059Z,9.77
2023-02-19T06:56:00.072Z,9.86
2023-02-19T06:58:31.191Z,10.01
2023-02-19T07:01:01.580Z,10.03
2023-02-19T07:03:31.983Z,9.93
2023-02-19T07:06:03.627Z,9.87
2023-02-19T07:08:36.524Z,9.94
2023-02-19T07:11:07.014Z,9.76
2023-02-19T07:13:37.599Z,9.83
2023-02-19T07:16:11.791Z,9.75
2023-02-19T07:18:43.680Z,9.66
2023-02-19T07:21:16.960Z,9.60
2023-02-19T07:23:49.921Z,9.54
2023-02-19T07:26:22.251Z,9.58
2023-02-19T07:28:54.704Z,9.51
2023-02-19T07:31:27.122Z,9.49
2023-02-19T07:33:58.010Z,9.49
2023-02-19T07:36:28.906Z,9.65
2023-02-19T07:39:03.332Z,9.60
2023-02-19T07:41:33.929Z,9.67
2023-02-19T07:44:04.356Z,9.74
2023-02-19T07:46:35.021Z,9.83
2023-02-19T07:49:07.526Z,9.72
2023-02-19T07:51:40.173Z,9.59
2023-02-19T07:54:13.748Z,9.62
2023-02-19T07:56:46.877Z,9.63
2023-02-19T07:59:19.507Z,9.54
2023-02-19T08:02:02.159Z,9.58
2023-02-19T08:04:32.485Z,9.63
2023-02-19T08:07:02.972Z,9.71
2023-02-19T08:09:36.893Z,9.67
2023-02-19T08:12:20.290Z,9.74
2023-02-19T08:14:50.641Z,9.78
2023-02-19T08:17:21.158Z,9.72
2023-02-19T08:19:51.677Z,9.74
2023-02-19T08:22:22.029Z,9.74
2023-02-19T08:24:55.082Z,9.62
2023-02-19T08:27:25.439Z,9.58
2023-02-19T08:29:58.720Z,9.66
2023-02-19T08:32:29.159Z,9.71
2023-02-19T08:34:59.534Z,9.67
2023-02-19T08:37:29.826Z,9.65
2023-02-19T08:40:02.743Z,9.54
2023-02-19T08:42:33.191Z,9.62
2023-02-19T08:45:03.552Z,9.64
2023-02-19T08:47:33.907Z,9.67
2023-02-19T08:50:05.199Z,9.64
2023-02-19T08:52:35.664Z,9.66
2023-02-19T08:55:10.192Z,9.66
2023-02-19T08:57:41.002Z,9.61
2023-02-19T09:00:13.719Z,9.52
2023-02-19T09:02:44.063Z,9.37
2023-02-19T09:05:15.099Z,9.30
2023-02-19T09:07:45.255Z,9.21
2023-02-19T09:10:18.502Z,9.11
2023-02-19T09:12:48.790Z,9.16
2023-02-19T09:15:19.423Z,9.17
2023-02-19T09:17:54.789Z,9.10
2023-02-19T09:20:25.198Z,9.15
2023-02-19T09:23:00.974Z,9.08
2023-02-19T09:25:33.993Z,9.04
2023-02-19T09:28:04.314Z,8.96
2023-02-19T09:30:34.921Z,8.95
2023-02-19T09:33:05.522Z,8.96
2023-02-19T09:35:35.890Z,8.92
2023-02-19T09:38:06.240Z,8.96
2023-02-19T09:40:40.164Z,8.94
2023-02-19T09:43:12.855Z,8.88
2023-02-19T09:45:43.904Z,8.88
2023-02-19T09:48:15.418Z,8.85
2023-02-19T09:50:48.780Z,8.77
2023-02-19T09:53:24.688Z,8.74
2023-02-19T09:55:58.877Z,8.77
2023-02-19T09:58:34.509Z,8.62
2023-02-19T10:01:09.174Z,8.59
2023-02-19T10:03:43.458Z,8.55
2023-02-19T10:06:23.653Z,8.49
2023-02-19T10:08:57.521Z,8.48
2023-02-19T10:11:30.985Z,8.45
2023-02-19T10:14:09.505Z,8.40
2023-02-19T10:16:45.537Z,8.38
2023-02-19T10:19:17.107Z,8.35
2023-02-19T10:21:47.861Z,8.31
2023-02-19T10:24:27.123Z,8.15
2023-02-19T10:27:00.149Z,8.15
2023-02-19T10:29:30.622Z,8.20
2023-02-19T10:32:27.446Z,8.23
2023-02-19T10:35:14.425Z,8.21
2023-02-19T10:37:50.872Z,8.16
2023-02-19T10:40:23.805Z,8.11
2023-02-19T10:42:59.512Z,8.11
2023-02-19T10:45:38.432Z,8.11
2023-02-19T10:48:10.528Z,8.14
2023-02-19T10:50:48.153Z,8.26
2023-02-19T10:53:26.238Z,8.43
2023-02-19T10:56:11.556Z,8.54
2023-02-19T10:58:47.406Z,8.65
2023-02-19T11:01:23.896Z,8.75
2023-02-19T11:03:55.869Z,8.84
2023-02-19T11:06:30.333Z,8.86
2023-02-19T11:09:03.410Z,8.88
2023-02-19T11:11:37.411Z,8.71
2023-02-19T11:14:24.236Z,8.59
2023-02-19T11:16:58.982Z,8.50
2023-02-19T11:19:34.749Z,8.47
2023-02-19T11:22:06.492Z,8.37
2023-02-19T11:24:41.199Z,8.37
2023-02-19T11:27:22.548Z,8.37
2023-02-19T11:29:55.590Z,8.54
2023-02-19T11:32:32.503Z,8.72
2023-02-19T11:35:19.831Z,8.91
2023-02-19T11:38:02.519Z,8.98
2023-02-19T11:40:47.174Z,9.11
2023-02-19T11:43:41.923Z,8.99
2023-02-19T11:46:20.868Z,8.91
2023-02-19T11:49:06.801Z,9.09
2023-02-19T11:52:08.138Z,9.04
2023-02-19T11:54:52.831Z,8.99
2023-02-19T11:57:41.297Z,8.76
2023-02-19T12:00:33.359Z,8.69
2023-02-19T12:03:44.940Z,8.58
2023-02-19T12:06:29.330Z,8.52
2023-02-19T12:09:21.234Z,8.55
2023-02-19T12:12:24.607Z,8.66
2023-02-19T12:15:21.838Z,8.77
2023-02-19T12:18:22.306Z,8.63
2023-02-19T12:21:10.994Z,8.59
2023-02-19T12:24:05.113Z,8.55
2023-02-19T12:26:46.866Z,8.66
2023-02-19T12:29:49.042Z,8.81
2023-02-19T12:32:50.292Z,8.98
2023-02-19T12:35:44.573Z,9.04
2023-02-19T12:38:33.701Z,8.92
2023-02-19T12:41:32.787Z,8.98
2023-02-19T12:44:08.951Z,8.88
2023-02-19T12:46:43.376Z,8.85
2023-02-19T12:49:19.778Z,8.88
2023-02-19T12:51:55.341Z,8.85
2023-02-19T12:54:32.619Z,8.84
2023-02-19T12:57:07.245Z,8.79
2023-02-19T12:59:43.653Z,8.68
2023-02-19T13:02:20.836Z,8.54
2023-02-19T13:04:59.215Z,8.48
2023-02-19T13:07:38.856Z,8.65
2023-02-19T13:10:33.779Z,8.67
2023-02-19T13:13:10.308Z,8.59
2023-02-19T13:15:44.943Z,8.59
2023-02-19T13:18:22.934Z,8.57
2023-02-19T13:20:55.903Z,8.62
2023-02-19T13:23:44.137Z,8.65
2023-02-19T13:26:40.577Z,8.70
2023-02-19T13:29:30.865Z,8.61
2023-02-19T13:32:46.717Z,8.54
2023-02-19T13:35:35.062Z,8.37
2023-02-19T13:38:08.070Z,8.43
2023-02-19T13:40:42.417Z,8.29
2023-02-19T13:43:28.661Z,8.27
2023-02-19T13:46:02.434Z,8.28
2023-02-19T13:48:35.334Z,8.31
2023-02-19T13:51:42.097Z,8.34
2023-02-19T13:54:30.332Z,8.35
2023-02-19T13:57:32.347Z,8.20
2023-02-19T14:00:05.565Z,8.34
2023-02-19T14:02:38.050Z,8.50
2023-02-19T14:05:12.063Z,8.52
2023-02-19T14:08:03.384Z,8.44
2023-02-19T14:11:02.651Z,8.22
2023-02-19T14:14:23.720Z,8.36
2023-02-19T14:17:09.389Z,8.56
2023-02-19T14:19:58.817Z,8.52
2023-02-19T14:23:19.945Z,8.49
2023-02-19T14:25:58.423Z,8.35
2023-02-19T14:28:36.310Z,8.28
2023-02-19T14:31:18.112Z,8.24
2023-02-19T14:33:54.885Z,8.11
2023-02-19T14:36:48.880Z,8.09
2023-02-19T14:39:22.671Z,8.11
2023-02-19T14:41:56.066Z,8.14
2023-02-19T14:44:29.298Z,8.09
2023-02-19T14:47:06.059Z,8.22
2023-02-19T14:49:46.326Z,8.30
2023-02-19T14:52:24.990Z,8.23
2023-02-19T14:54:59.738Z,8.20
2023-02-19T14:57:34.591Z,8.13
2023-02-19T15:00:18.207Z,8.20
2023-02-19T15:02:49.139Z,8.40
2023-02-19T15:05:27.954Z,8.48
2023-02-19T15:08:02.982Z,8.51
2023-02-19T15:10:36.533Z,8.50
2023-02-19T15:13:12.139Z,8.41
2023-02-19T15:15:47.547Z,8.47
2023-02-19T15:18:23.688Z,8.43
2023-02-19T15:21:04.779Z,8.30
2023-02-19T15:23:37.767Z,8.12
2023-02-19T15:26:08.851Z,7.96
2023-02-19T15:28:39.043Z,7.90
2023-02-19T15:31:19.354Z,7.81
2023-02-19T15:33:55.101Z,7.72
2023-02-19T15:36:32.572Z,7.64
2023-02-19T15:39:04.857Z,7.52
2023-02-19T15:41:38.311Z,7.43
2023-02-19T15:44:24.191Z,7.34
2023-02-19T15:46:55.606Z,7.23
2023-02-19T15:49:32.091Z,7.18
2023-02-19T15:52:10.842Z,7.17
2023-02-19T15:54:53.340Z,7.12
2023-02-19T15:57:32.656Z,7.02
2023-02-19T16:00:12.539Z,6.97
2023-02-19T16:02:44.604Z,6.92
2023-02-19T16:05:18.559Z,6.84
2023-02-19T16:08:08.663Z,6.79
2023-02-19T16:10:39.005Z,6.75
2023-02-19T16:13:10.080Z,6.68
2023-02-19T16:15:43.879Z,6.69
2023-02-19T16:18:18.132Z,6.64
2023-02-19T16:20:51.210Z,6.60
2023-02-19T16:23:25.512Z,6.56
2023-02-19T16:26:03.152Z,6.55
2023-02-19T16:28:40.082Z,6.55
2023-02-19T16:31:13.853Z,6.51
2023-02-19T16:33:48.465Z,6.47
2023-02-19T16:36:41.939Z,6.37
2023-02-19T16:39:26.809Z,6.29
2023-02-19T16:42:21.655Z,6.32
2023-02-19T16:44:51.993Z,6.26
2023-02-19T16:47:35.936Z,6.13
2023-02-19T16:50:15.937Z,6.10
2023-02-19T16:52:56.706Z,6.07
2023-02-19T16:55:30.516Z,6.05
2023-02-19T16:58:00.925Z,5.95
2023-02-19T17:00:34.222Z,5.72
2023-02-19T17:03:09.946Z,5.67
2023-02-19T17:05:42.439Z,5.71
2023-02-19T17:08:35.654Z,5.61
2023-02-19T17:11:14.009Z,5.60
2023-02-19T17:13:45.968Z,5.53
2023-02-19T17:16:22.409Z,5.56
2023-02-19T17:18:54.375Z,5.53
2023-02-19T17:21:27.032Z,5.48
2023-02-19T17:23:57.890Z,5.42
2023-02-19T17:26:33.493Z,5.31
2023-02-19T17:29:07.236Z,5.35
2023-02-19T17:31:37.953Z,5.27
2023-02-19T17:34:08.759Z,5.18
2023-02-19T17:36:41.069Z,5.11
2023-02-19T17:39:18.007Z,5.11
2023-02-19T17:41:50.911Z,5.17
2023-02-19T17:44:21.229Z,5.13
2023-02-19T17:46:51.666Z,5.15
2023-02-19T17:49:22.111Z,5.03
2023-02-19T17:51:52.504Z,4.92
2023-02-19T17:54:23.099Z,4.86
2023-02-19T17:56:56.102Z,4.76
2023-02-19T17:59:26.453Z,4.71
2023-02-19T18:01:57.258Z,4.64
2023-02-19T18:04:27.586Z,4.60
2023-02-19T18:06:58.076Z,4.66
2023-02-19T18:09:28.440Z,4.66
2023-02-19T18:12:01.453Z,4.67
2023-02-19T18:14:31.847Z,4.64
2023-02-19T18:17:02.404Z,4.63
2023-02-19T18:19:32.857Z,4.68
2023-02-19T18:22:05.205Z,4.67
2023-02-19T18:24:36.736Z,4.56
2023-02-19T18:27:09.868Z,4.46
2023-02-19T18:29:40.215Z,4.50
2023-02-19T18:32:10.738Z,4.66
2023-02-19T18:34:41.249Z,4.62
2023-02-19T18:37:11.816Z,4.60
2023-02-19T18:39:43.961Z,4.63
2023-02-19T18:42:17.857Z,4.53
2023-02-19T18:44:52.819Z,4.64
2023-02-19T18:47:25.375Z,4.61
2023-02-19T18:49:58.478Z,4.67
2023-02-19T18:52:30.630Z,4.70
2023-02-19T18:55:01.306Z,4.77
2023-02-19T18:57:34.496Z,4.83
2023-02-19T19:00:06.434Z,4.90
2023-02-19T19:02:48.754Z,4.86
2023-02-19T19:05:23.229Z,4.93
2023-02-19T19:07:55.532Z,4.90
2023-02-19T19:10:26.289Z,4.99
2023-02-19T19:12:59.448Z,5.04
2023-02-19T19:15:30.067Z,5.07
2023-02-19T19:18:00.529Z,5.02
2023-02-19T19:20:30.878Z,5.07
2023-02-19T19:23:01.252Z,5.07
2023-02-19T19:25:31.637Z,5.03
2023-02-19T19:28:04.598Z,5.05
2023-02-19T19:30:35.062Z,5.01
2023-02-19T19:33:05.538Z,4.93
2023-02-19T19:35:36.018Z,4.92
2023-02-19T19:38:06.802Z,4.90
2023-02-19T19:40:37.477Z,4.90
2023-02-19T19:43:10.533Z,4.85
2023-02-19T19:45:40.996Z,4.83
2023-02-19T19:48:11.349Z,4.74
2023-02-19T19:50:41.703Z,4.67
2023-02-19T19:53:12.001Z,4.64
2023-02-19T19:55:42.490Z,4.62
2023-02-19T19:58:16.889Z,4.59
2023-02-19T20:00:47.657Z,4.54
2023-02-19T20:03:18.576Z,4.52
2023-02-19T20:05:50.634Z,4.53
2023-02-19T20:08:29.916Z,4.50
2023-02-19T20:11:00.361Z,4.46
2023-02-19T20:13:34.606Z,4.43
2023-02-19T20:16:06.234Z,4.44
2023-02-19T20:18:38.130Z,4.42
2023-02-19T20:21:11.131Z,4.37
2023-02-19T20:23:42.205Z,4.30
2023-02-19T20:26:12.591Z,4.30
2023-02-19T20:28:46.594Z,4.17
2023-02-19T20:31:17.180Z,4.16
2023-02-19T20:33:47.920Z,4.07
2023-02-19T20:36:18.305Z,4.06
2023-02-19T20:38:48.788Z,4.05
2023-02-19T20:41:19.469Z,4.03
2023-02-19T20:43:52.684Z,4.06
2023-02-19T20:46:23.477Z,4.11
2023-02-19T20:48:53.872Z,4.21
2023-02-19T20:51:24.389Z,4.28
2023-02-19T20:53:54.884Z,4.36
2023-02-19T20:56:25.376Z,4.39
2023-02-19T20:58:58.598Z,4.45
2023-02-19T21:01:29.950Z,4.57
2023-02-19T21:04:00.433Z,4.58
2023-02-19T21:06:30.833Z,4.66
2023-02-19T21:09:01.471Z,4.71
2023-02-19T21:11:32.123Z,4.74
2023-02-19T21:14:05.172Z,4.80
2023-02-19T21:16:36.143Z,4.87
2023-02-19T21:19:07.322Z,4.98
2023-02-19T21:21:39.434Z,5.04
2023-02-19T21:24:10.387Z,5.06
2023-02-19T21:26:43.202Z,5.11
2023-02-19T21:29:19.988Z,5.10
2023-02-19T21:31:52.641Z,5.14
2023-02-19T21:34:25.408Z,5.18
2023-02-19T21:36:56.423Z,5.23
2023-02-19T21:39:31.442Z,5.31
2023-02-19T21:42:02.740Z,5.39
2023-02-19T21:44:35.786Z,5.45
2023-02-19T21:47:06.545Z,5.44
2023-02-19T21:49:36.907Z,5.55
2023-02-19T21:52:07.302Z,5.60
2023-02-19T21:54:40.641Z,5.67
2023-02-19T21:57:11.188Z,5.74
2023-02-19T21:59:44.353Z,5.80
2023-02-19T22:02:14.738Z,5.70
2023-02-19T22:04:45.090Z,5.76
2023-02-19T22:07:15.780Z,5.83
2023-02-19T22:09:46.145Z,5.84
2023-02-19T22:12:16.588Z,5.72
2023-02-19T22:14:49.561Z,5.72
2023-02-19T22:17:19.967Z,5.76
2023-02-19T22:19:50.502Z,5.82
2023-02-19T22:22:21.065Z,5.93
2023-02-19T22:24:51.460Z,5.83
2023-02-19T22:27:22.192Z,5.77
2023-02-19T22:29:55.211Z,5.76
2023-02-19T22:32:25.598Z,5.85
2023-02-19T22:34:56.012Z,5.91
2023-02-19T22:37:26.598Z,5.98
2023-02-19T22:39:57.246Z,6.03
2023-02-19T22:42:29.452Z,6.10
2023-02-19T22:45:02.426Z,6.15
2023-02-19T22:47:32.740Z,6.21
2023-02-19T22:50:03.117Z,6.26
2023-02-19T22:52:33.392Z,6.28
2023-02-19T22:55:03.996Z,6.27
2023-02-19T22:57:35.175Z,6.29
2023-02-19T23:00:09.345Z,6.28
2023-02-19T23:02:39.761Z,6.31
2023-02-19T23:05:10.495Z,6.25
2023-02-19T23:07:40.912Z,6.18
2023-02-19T23:10:12.809Z,6.26
2023-02-19T23:12:44.405Z,6.30
2023-02-19T23:15:17.461Z,6.34
2023-02-19T23:17:47.813Z,6.34
2023-02-19T23:20:18.490Z,6.38
2023-02-19T23:22:49.037Z,6.40
2023-02-19T23:25:19.848Z,6.32
2023-02-19T23:27:50.213Z,6.32
2023-02-19T23:30:24.088Z,6.26
2023-02-19T23:32:54.575Z,6.14
2023-02-19T23:35:24.910Z,6.02
2023-02-19T23:37:55.985Z,5.95
2023-02-19T23:40:26.435Z,5.93
2023-02-19T23:42:57.486Z,5.97
2023-02-19T23:45:30.532Z,5.98
2023-02-19T23:48:00.857Z,5.94
2023-02-19T23:50:31.164Z,5.99
2023-02-19T23:53:01.865Z,5.95
2023-02-19T23:55:32.319Z,5.92
2023-02-19T23:58:02.855Z,5.92
